Time;durP1;ratioP1;P1;durP2;ratioP2;P2;SDS_P1;SDS_P2;PMS_P1;PMS_P2;Temp;Humidity;BMP_temperature;BMP_pressure;BME280_temperature;BME280_humidity;BME280_pressure;Samples;Min_cycle;Max_cycle;Signal;HPM_P1;HPM_P2
2022/07/25 00:00:41;;;;;;;11.07;9.95;;;;;;;26.04;54.75;94725.94;4223012;28;20065;-55
2022/07/25 00:02:43;;;;;;;12.82;8.18;;;;;;;26.03;53.85;94719.78;4220330;28;20043;-52
2022/07/25 00:04:45;;;;;;;14.05;9.20;;;;;;;26.01;53.43;94723.78;4222365;28;20494;-53
2022/07/25 00:06:46;;;;;;;10.57;8.15;;;;;;;26.00;53.25;94720.28;4224309;28;20043;-54
2022/07/25 00:08:48;;;;;;;10.27;8.32;;;;;;;25.97;53.63;94709.25;4219045;28;20143;-55
2022/07/25 00:10:50;;;;;;;10.13;8.68;;;;;;;25.95;53.29;94701.44;4217802;28;20059;-55
2022/07/25 00:12:51;;;;;;;12.07;9.00;;;;;;;25.99;53.06;94710.59;4219345;28;20044;-51
2022/07/25 00:14:53;;;;;;;10.50;9.48;;;;;;;25.97;53.50;94710.06;4214107;28;20184;-56
2022/07/25 00:16:55;;;;;;;12.25;8.80;;;;;;;25.91;53.57;94709.19;4223889;28;20047;-55
2022/07/25 00:18:56;;;;;;;9.13;8.18;;;;;;;25.88;53.44;94712.41;4226581;28;20052;-53
2022/07/25 00:20:58;;;;;;;10.82;8.50;;;;;;;25.90;53.61;94706.78;4213674;28;20044;-53
2022/07/25 00:23:00;;;;;;;11.38;9.10;;;;;;;25.87;54.20;94716.09;4208277;28;20056;-54
2022/07/25 00:25:01;;;;;;;10.85;9.10;;;;;;;25.59;55.23;94724.41;4225432;28;20503;-53
2022/07/25 00:27:03;;;;;;;15.60;9.35;;;;;;;25.35;55.69;94719.31;4219329;28;20040;-53
2022/07/25 00:29:05;;;;;;;11.32;9.10;;;;;;;25.20;55.89;94716.47;4218954;28;20051;-50
2022/07/25 00:31:07;;;;;;;14.77;9.75;;;;;;;25.21;56.00;94712.72;4213956;28;20059;-52
2022/07/25 00:33:08;;;;;;;12.52;9.25;;;;;;;25.18;56.53;94703.28;4221718;28;20140;-53
2022/07/25 00:35:10;;;;;;;10.98;9.15;;;;;;;25.22;56.27;94691.03;4221546;28;20047;-55
2022/07/25 00:37:12;;;;;;;13.32;9.82;;;;;;;25.31;56.18;94688.72;4208308;28;20744;-53
2022/07/25 00:39:14;;;;;;;10.60;8.82;;;;;;;25.40;55.98;94689.88;4214539;28;20051;-58
2022/07/25 00:41:15;;;;;;;10.38;9.15;;;;;;;25.45;55.88;94689.13;4219198;28;20052;-58
2022/07/25 00:43:17;;;;;;;14.05;9.55;;;;;;;25.46;55.71;94682.69;4209396;28;20110;-56
2022/07/25 00:45:19;;;;;;;11.68;9.68;;;;;;;25.37;55.96;94689.59;4208924;28;20569;-57
2022/07/25 00:47:21;;;;;;;12.40;9.57;;;;;;;25.37;55.96;94684.22;4208640;28;20048;-58
2022/07/25 00:49:23;;;;;;;9.60;8.57;;;;;;;25.41;55.92;94682.66;4214180;28;20120;-57
2022/07/25 00:51:24;;;;;;;11.77;9.18;;;;;;;25.46;55.45;94682.69;4220003;28;20056;-58
2022/07/25 00:53:26;;;;;;;13.65;9.60;;;;;;;25.44;55.31;94691.00;4219959;28;20043;-57
2022/07/25 00:55:28;;;;;;;11.70;9.13;;;;;;;25.46;55.09;94693.44;4223994;28;20047;-58
2022/07/25 00:57:30;;;;;;;10.85;9.18;;;;;;;25.42;54.89;94693.09;4226459;28;20047;-58
2022/07/25 00:59:31;;;;;;;11.50;9.25;;;;;;;25.39;55.12;94690.94;4220049;28;20132;-58
2022/07/25 01:01:33;;;;;;;11.00;9.30;;;;;;;25.37;55.14;94692.25;4218500;28;20305;-58
2022/07/25 01:03:35;;;;;;;12.77;9.07;;;;;;;25.34;55.09;94690.91;4212668;28;20055;-57
2022/07/25 01:05:37;;;;;;;12.18;10.30;;;;;;;25.32;55.33;94684.97;4210920;28;20055;-58
2022/07/25 01:07:39;;;;;;;12.45;9.30;;;;;;;25.36;55.28;94687.94;4212550;28;20043;-58
2022/07/25 01:09:41;;;;;;;13.52;9.63;;;;;;;25.38;55.08;94686.63;4226842;28;20127;-59
2022/07/25 01:11:43;;;;;;;10.25;9.25;;;;;;;25.40;55.63;94689.88;4223126;28;20043;-59
2022/07/25 01:13:44;;;;;;;13.45;10.38;;;;;;;25.42;55.52;94689.63;4222063;28;20056;-59
2022/07/25 01:15:46;;;;;;;11.40;10.25;;;;;;;25.33;55.85;94683.91;4212008;28;20558;-58
2022/07/25 01:17:49;;;;;;;11.80;10.13;;;;;;;25.26;55.89;94684.09;4210844;28;20075;-59
2022/07/25 01:19:52;;;;;;;11.40;9.32;;;;;;;25.23;56.51;94684.63;4225918;28;20124;-59
2022/07/25 01:21:55;;;;;;;11.43;9.75;;;;;;;25.20;56.39;94685.09;4208869;28;20056;-59
2022/07/25 01:23:56;;;;;;;12.07;9.82;;;;;;;25.21;56.56;94685.91;4212717;28;20460;-57
2022/07/25 01:25:58;;;;;;;10.68;9.55;;;;;;;25.26;56.25;94683.31;4211910;28;20426;-58
2022/07/25 01:28:00;;;;;;;11.23;9.52;;;;;;;25.29;56.17;94683.59;4211134;28;20048;-58
2022/07/25 01:30:05;;;;;;;12.63;9.98;;;;;;;25.34;56.02;94686.34;4210162;28;20059;-59
2022/07/25 01:32:06;;;;;;;13.00;9.38;;;;;;;25.39;56.02;94684.78;4212875;27;20059;-57
2022/07/25 01:34:08;;;;;;;10.63;8.80;;;;;;;25.39;55.70;94682.09;4215547;28;20052;-58
2022/07/25 01:36:11;;;;;;;13.25;9.40;;;;;;;25.41;55.51;94679.97;4225352;28;20104;-60
2022/07/25 01:38:13;;;;;;;10.77;9.52;;;;;;;25.43;55.42;94681.34;4225283;28;20045;-58
2022/07/25 01:40:15;;;;;;;12.10;9.90;;;;;;;25.43;55.16;94684.03;4218233;28;20108;-51
2022/07/25 01:42:17;;;;;;;9.90;8.90;;;;;;;25.41;55.04;94690.69;4224610;28;20051;-55
2022/07/25 01:44:18;;;;;;;13.35;9.43;;;;;;;25.32;55.19;94691.16;4212904;28;20180;-52
2022/07/25 01:46:20;;;;;;;11.55;9.15;;;;;;;25.29;54.99;94685.47;4212818;28;20167;-52
2022/07/25 01:48:22;;;;;;;11.90;8.80;;;;;;;25.17;55.78;94687.44;4221236;28;20052;-53
2022/07/25 01:50:24;;;;;;;10.15;9.05;;;;;;;25.04;55.33;94688.66;4223590;28;20495;-52
2022/07/25 01:52:26;;;;;;;9.95;8.68;;;;;;;25.01;55.28;94681.91;4216361;28;20051;-54
2022/07/25 01:54:28;;;;;;;9.38;8.27;;;;;;;25.03;55.25;94687.81;4210283;28;20071;-50
2022/07/25 01:56:29;;;;;;;11.07;8.85;;;;;;;25.07;55.25;94694.31;4210023;28;20040;-51
2022/07/25 01:58:32;;;;;;;9.57;8.30;;;;;;;25.09;55.02;94697.53;4222569;28;20183;-51
2022/07/25 02:00:34;;;;;;;10.18;9.07;;;;;;;25.06;54.88;94699.91;4219998;28;20066;-51
2022/07/25 02:02:36;;;;;;;12.40;8.93;;;;;;;25.10;55.02;94706.38;4210935;28;20207;-51
2022/07/25 02:04:37;;;;;;;11.80;8.73;;;;;;;25.13;54.80;94697.88;4213329;27;20109;-50
2022/07/25 02:06:40;;;;;;;11.05;9.10;;;;;;;25.18;54.83;94702.47;4219215;28;20509;-50
2022/07/25 02:08:42;;;;;;;11.23;9.10;;;;;;;25.22;54.84;94703.63;4226111;28;20051;-51
2022/07/25 02:10:43;;;;;;;10.23;9.23;;;;;;;25.24;54.94;94693.47;4227053;28;20104;-54
2022/07/25 02:12:45;;;;;;;10.45;9.38;;;;;;;25.24;55.10;94685.41;4214030;28;20389;-52
2022/07/25 02:14:47;;;;;;;14.38;9.00;;;;;;;25.24;55.23;94694.25;4223659;28;20101;-51
2022/07/25 02:16:49;;;;;;;10.45;9.35;;;;;;;25.26;55.39;94694.81;4212769;28;20355;-57
2022/07/25 02:18:51;;;;;;;10.70;9.60;;;;;;;25.27;55.16;94691.06;4220115;28;20076;-54
2022/07/25 02:20:52;;;;;;;10.52;9.43;;;;;;;25.27;54.80;94699.13;4211956;28;21001;-49
2022/07/25 02:22:54;;;;;;;12.60;9.82;;;;;;;25.27;54.91;94693.75;4210966;28;20056;-51
2022/07/25 02:24:56;;;;;;;11.60;9.10;;;;;;;25.27;54.89;94703.66;4219922;28;20055;-51
2022/07/25 02:26:57;;;;;;;11.55;9.55;;;;;;;25.22;55.30;94699.06;4222820;28;20116;-52
2022/07/25 02:29:00;;;;;;;13.40;9.50;;;;;;;25.22;54.98;94701.75;4209796;28;20052;-52
2022/07/25 02:31:01;;;;;;;13.23;9.82;;;;;;;25.23;55.07;94698.03;4218855;28;20113;-52
2022/07/25 02:33:03;;;;;;;11.00;9.90;;;;;;;25.24;55.02;94702.31;4226436;28;20405;-53
2022/07/25 02:35:06;;;;;;;13.02;9.20;;;;;;;25.20;54.39;94698.50;4211443;28;20043;-51
2022/07/25 02:37:13;;;;;;;10.20;9.20;;;;;;;25.20;54.12;94700.38;4220855;28;20123;-53
2022/07/25 02:39:15;;;;;;;12.77;8.80;;;;;;;25.14;53.84;94696.78;4215731;28;20093;-52
2022/07/25 02:41:17;;;;;;;14.10;9.02;;;;;;;25.10;54.39;94695.66;4223491;28;20044;-54
2022/07/25 02:43:19;;;;;;;10.98;9.15;;;;;;;25.06;54.33;94695.38;4208879;28;20039;-53
2022/07/25 02:45:21;;;;;;;14.10;9.10;;;;;;;25.02;54.37;94688.09;4215739;28;20048;-53
2022/07/25 02:47:23;;;;;;;10.23;9.15;;;;;;;25.00;54.62;94691.00;4213088;28;20055;-50
2022/07/25 02:49:25;;;;;;;12.15;9.20;;;;;;;25.00;54.31;94691.00;4214600;28;20469;-52
2022/07/25 02:51:26;;;;;;;11.10;9.07;;;;;;;25.00;54.59;94692.88;4215315;28;20063;-54
2022/07/25 02:53:28;;;;;;;13.88;9.05;;;;;;;24.94;54.31;94694.69;4208389;28;20052;-54
2022/07/25 02:55:50;;;;;;;9.88;8.70;;;;;;;24.90;54.60;94698.91;4222802;28;20130;-49
2022/07/25 02:57:51;;;;;;;13.02;8.73;;;;;;;24.82;54.47;94700.13;4216153;28;20116;-52
2022/07/25 02:59:53;;;;;;;12.20;8.68;;;;;;;24.78;54.45;94698.22;4215347;28;20093;-52
2022/07/25 03:01:55;;;;;;;11.48;9.00;;;;;;;24.72;54.36;94700.03;4221053;28;20117;-52
2022/07/25 03:03:56;;;;;;;11.95;8.10;;;;;;;24.70;54.50;94694.09;4214772;28;20373;-57
2022/07/25 03:05:58;;;;;;;12.27;9.18;;;;;;;24.61;54.21;94692.88;4210669;28;20048;-57
2022/07/25 03:08:00;;;;;;;9.50;8.50;;;;;;;24.54;54.30;94695.75;4214132;28;20301;-58
2022/07/25 03:10:03;;;;;;;11.57;8.35;;;;;;;24.48;54.36;94702.91;4220551;28;20066;-58
2022/07/25 03:12:11;;;;;;;10.00;8.85;;;;;;;24.47;54.22;94693.22;4212411;28;20047;-58
2022/07/25 03:14:13;;;;;;;12.55;8.40;;;;;;;24.44;54.33;94696.38;4217158;28;20066;-57
2022/07/25 03:16:15;;;;;;;11.13;8.98;;;;;;;24.43;54.54;94702.78;4211611;28;20055;-58
2022/07/25 03:18:17;;;;;;;12.38;8.93;;;;;;;24.36;54.72;94704.84;4219518;28;20059;-58
2022/07/25 03:20:18;;;;;;;13.10;9.48;;;;;;;24.34;54.22;94701.59;4221057;28;20047;-57
2022/07/25 03:22:21;;;;;;;9.27;8.38;;;;;;;24.29;54.43;94701.53;4224125;28;20040;-59
2022/07/25 03:24:22;;;;;;;12.52;8.52;;;;;;;24.29;54.38;94713.03;4216090;28;20124;-58
2022/07/25 03:26:24;;;;;;;11.25;8.75;;;;;;;24.25;54.12;94708.41;4208387;28;20113;-59
2022/07/25 03:28:26;;;;;;;12.60;7.85;;;;;;;24.29;54.03;94706.88;4208856;28;20074;-59
2022/07/25 03:30:27;;;;;;;13.60;9.25;;;;;;;24.29;54.17;94699.66;4209173;28;20478;-57
2022/07/25 03:32:29;;;;;;;10.18;7.75;;;;;;;24.29;53.86;94704.19;4207651;28;20177;-59
2022/07/25 03:34:31;;;;;;;11.00;8.25;;;;;;;24.30;53.97;94709.28;4217182;28;20047;-57
2022/07/25 03:36:32;;;;;;;12.18;8.38;;;;;;;24.27;53.90;94706.31;4214994;28;20052;-59
2022/07/25 03:38:34;;;;;;;11.07;8.43;;;;;;;24.32;53.61;94701.03;4219833;28;20044;-58
2022/07/25 03:40:36;;;;;;;10.00;8.23;;;;;;;24.36;53.61;94702.16;4211211;28;20150;-60
2022/07/25 03:42:38;;;;;;;9.52;7.75;;;;;;;24.41;53.44;94709.44;4225565;28;20104;-59
2022/07/25 03:44:39;;;;;;;10.32;7.95;;;;;;;24.38;53.46;94708.09;4217748;28;20104;-58
2022/07/25 03:46:41;;;;;;;9.25;8.07;;;;;;;24.37;53.52;94703.78;4209640;28;20123;-57
2022/07/25 03:48:43;;;;;;;10.02;8.38;;;;;;;24.38;53.39;94709.94;4211409;28;20139;-58
2022/07/25 03:50:45;;;;;;;12.90;8.38;;;;;;;24.30;53.27;94705.81;4222367;28;20135;-58
2022/07/25 03:52:47;;;;;;;9.87;8.63;;;;;;;24.23;53.64;94711.34;4214338;28;20109;-59
2022/07/25 03:54:49;;;;;;;14.13;8.10;;;;;;;24.30;53.20;94719.19;4217251;28;20280;-59
2022/07/25 03:56:51;;;;;;;11.02;8.07;;;;;;;24.29;53.47;94715.72;4211238;28;20052;-59
2022/07/25 03:58:52;;;;;;;9.40;7.88;;;;;;;24.28;53.08;94714.06;4222780;28;20119;-59
2022/07/25 04:00:54;;;;;;;9.82;7.90;;;;;;;24.28;53.02;94711.41;4211322;28;20043;-60
2022/07/25 04:02:56;;;;;;;13.93;8.65;;;;;;;24.35;52.83;94713.94;4214882;28;20047;-59
2022/07/25 04:04:57;;;;;;;8.88;7.97;;;;;;;24.38;52.66;94705.41;4219759;28;20427;-58
2022/07/25 04:06:59;;;;;;;8.80;7.93;;;;;;;24.42;52.49;94714.56;4216970;28;20104;-58
2022/07/25 04:09:01;;;;;;;10.13;7.95;;;;;;;24.51;52.38;94710.44;4210204;28;20051;-59
2022/07/25 04:11:02;;;;;;;11.18;7.75;;;;;;;24.57;51.81;94710.53;4215424;28;20196;-60
2022/07/25 04:13:04;;;;;;;10.45;8.45;;;;;;;24.65;51.72;94710.91;4211965;28;20649;-60
2022/07/25 04:15:06;;;;;;;8.95;7.30;;;;;;;24.74;51.67;94711.31;4224305;28;20696;-58
2022/07/25 04:17:08;;;;;;;11.63;8.32;;;;;;;24.71;51.38;94709.09;4217247;28;20469;-60
2022/07/25 04:19:10;;;;;;;12.02;7.72;;;;;;;24.75;51.20;94707.56;4210998;28;20524;-59
2022/07/25 04:21:11;;;;;;;10.02;8.10;;;;;;;24.78;50.93;94707.09;4221327;28;20386;-58
2022/07/25 04:23:13;;;;;;;10.38;7.13;;;;;;;24.81;50.69;94703.88;4212504;28;20044;-59
2022/07/25 04:25:16;;;;;;;8.73;7.68;;;;;;;24.86;50.74;94703.16;4224226;28;20097;-59
2022/07/25 04:27:18;;;;;;;11.27;7.68;;;;;;;24.87;50.84;94708.25;4222340;28;20480;-57
2022/07/25 04:29:20;;;;;;;10.05;7.50;;;;;;;24.88;50.49;94709.88;4225196;28;20124;-58
2022/07/25 04:31:21;;;;;;;8.07;7.28;;;;;;;24.94;50.39;94698.16;4225372;28;20059;-59
2022/07/25 04:33:23;;;;;;;12.23;7.65;;;;;;;24.97;50.49;94707.56;4212356;28;20090;-59
2022/07/25 04:35:25;;;;;;;8.48;7.30;;;;;;;25.02;50.03;94698.81;4217994;28;20070;-60
2022/07/25 04:37:27;;;;;;;10.60;7.13;;;;;;;25.00;50.12;94700.94;4218282;28;20255;-57
2022/07/25 04:39:29;;;;;;;9.65;7.40;;;;;;;25.02;50.05;94701.50;4223125;28;20457;-59
2022/07/25 04:41:30;;;;;;;11.77;7.60;;;;;;;25.07;49.79;94702.34;4222437;28;20132;-58
2022/07/25 04:43:32;;;;;;;10.32;7.72;;;;;;;25.06;50.01;94699.91;4214820;28;20085;-58
2022/07/25 04:45:34;;;;;;;8.05;7.22;;;;;;;25.04;49.84;94708.22;4219802;28;20048;-58
2022/07/25 04:47:36;;;;;;;11.70;7.60;;;;;;;25.16;49.46;94704.59;4222016;28;20046;-59
2022/07/25 04:49:37;;;;;;;9.57;7.32;;;;;;;25.25;49.46;94708.47;4227214;28;20116;-58
2022/07/25 04:51:39;;;;;;;8.57;7.60;;;;;;;25.36;49.12;94707.56;4224575;28;20087;-61
2022/07/25 04:53:41;;;;;;;8.07;7.18;;;;;;;25.37;49.08;94706.47;4217406;27;20048;-58
2022/07/25 04:55:42;;;;;;;8.38;7.20;;;;;;;25.41;48.88;94709.47;4211396;28;20044;-58
2022/07/25 04:57:45;;;;;;;10.10;6.55;;;;;;;25.48;48.96;94708.19;4216413;28;20044;-58
2022/07/25 04:59:47;;;;;;;11.98;7.45;;;;;;;25.55;48.79;94710.69;4228024;28;20048;-58
2022/07/25 05:01:49;;;;;;;8.88;7.15;;;;;;;25.61;48.70;94709.69;4225423;28;20056;-60
2022/07/25 05:03:50;;;;;;;11.25;7.13;;;;;;;25.73;48.30;94709.53;4217509;28;20056;-60
2022/07/25 05:05:52;;;;;;;12.93;8.20;;;;;;;25.79;48.27;94705.84;4221593;28;20830;-58
2022/07/25 05:07:58;;;;;;;9.57;6.85;;;;;;;25.79;48.40;94705.84;4210384;28;20375;-59
2022/07/25 05:10:00;;;;;;;10.13;7.13;;;;;;;25.80;48.15;94702.09;4219907;28;20645;-59
2022/07/25 05:12:02;;;;;;;11.25;6.95;;;;;;;25.80;48.00;94709.34;4216719;28;20112;-59
2022/07/25 05:14:04;;;;;;;8.45;7.18;;;;;;;25.74;48.13;94701.22;4218530;28;20476;-59
2022/07/25 05:16:06;;;;;;;7.47;6.72;;;;;;;25.73;47.78;94710.34;4217634;28;20302;-64
2022/07/25 05:18:08;;;;;;;11.35;7.82;;;;;;;25.78;48.05;94706.09;4213149;28;20076;-63
2022/07/25 05:20:10;;;;;;;8.93;6.93;;;;;;;25.77;47.85;94707.13;4219637;28;20438;-52
2022/07/25 05:22:12;;;;;;;9.55;7.05;;;;;;;25.80;47.58;94704.75;4209015;28;20520;-56
2022/07/25 05:24:14;;;;;;;7.50;6.70;;;;;;;25.86;47.85;94711.00;4216676;28;20131;-57
2022/07/25 05:26:16;;;;;;;10.35;7.38;;;;;;;25.71;47.89;94709.78;4224343;28;20553;-60
2022/07/25 05:28:17;;;;;;;9.20;7.00;;;;;;;25.74;47.73;94724.56;4218918;28;20203;-59
2022/07/25 05:30:19;;;;;;;10.70;6.53;;;;;;;25.81;47.74;94722.47;4224755;28;20055;-60
2022/07/25 05:32:21;;;;;;;10.57;6.40;;;;;;;25.82;47.70;94726.00;4211843;28;20040;-59
2022/07/25 05:34:23;;;;;;;8.68;6.80;;;;;;;25.75;47.54;94727.00;4215036;28;20105;-58
2022/07/25 05:36:24;;;;;;;10.95;7.07;;;;;;;25.58;48.30;94706.72;4221368;28;20051;-64
2022/07/25 05:38:26;;;;;;;14.63;6.95;;;;;;;25.64;48.43;94714.56;4213455;28;20050;-61
2022/07/25 05:40:28;;;;;;;8.13;7.00;;;;;;;25.69;47.93;94721.84;4211603;28;20067;-60
2022/07/25 05:42:30;;;;;;;12.02;7.45;;;;;;;25.82;47.91;94715.25;4214344;28;20056;-59
2022/07/25 05:44:32;;;;;;;7.38;6.38;;;;;;;25.79;48.05;94703.16;4210807;28;20151;-61
2022/07/25 05:46:34;;;;;;;8.45;7.43;;;;;;;25.74;48.40;94711.94;4221099;28;20044;-60
2022/07/25 05:48:36;;;;;;;9.38;7.65;;;;;;;25.84;47.96;94707.75;4211862;28;20056;-61
2022/07/25 05:50:38;;;;;;;8.70;7.15;;;;;;;25.68;48.20;94713.00;4221461;28;20044;-59
2022/07/25 05:52:39;;;;;;;9.95;7.30;;;;;;;25.73;48.02;94709.53;4212639;28;20153;-60
2022/07/25 05:54:41;;;;;;;9.48;7.10;;;;;;;25.74;47.57;94698.53;4210679;28;20052;-59
2022/07/25 05:56:43;;;;;;;7.63;6.75;;;;;;;25.80;47.64;94712.00;4215365;28;20489;-59
2022/07/25 05:58:45;;;;;;;10.35;6.95;;;;;;;25.78;47.27;94706.91;4215189;28;20078;-60
2022/07/25 06:00:46;;;;;;;10.23;7.30;;;;;;;25.58;48.05;94709.38;4209709;28;20049;-60
2022/07/25 06:02:48;;;;;;;8.70;7.75;;;;;;;25.55;48.22;94708.00;4209712;28;20443;-60
2022/07/25 06:04:50;;;;;;;8.88;7.10;;;;;;;25.58;47.94;94712.06;4210639;28;20047;-60
2022/07/25 06:06:52;;;;;;;11.90;6.90;;;;;;;25.58;48.03;94707.50;4207380;28;20054;-59
2022/07/25 06:08:53;;;;;;;12.43;7.70;;;;;;;25.67;48.18;94705.19;4211361;28;20063;-61
2022/07/25 06:10:58;;;;;;;11.45;7.45;;;;;;;25.63;48.13;94712.91;4216254;28;20474;-59
2022/07/25 06:13:01;;;;;;;10.05;7.90;;;;;;;25.61;48.59;94707.00;4210080;28;20117;-59
2022/07/25 06:15:04;;;;;;;8.73;7.68;;;;;;;25.54;48.55;94706.41;4216548;28;20468;-50
2022/07/25 06:17:06;;;;;;;;;;;;;;;25.40;49.02;94702.47;4215216;28;20104;-47
2022/07/25 06:19:08;;;;;;;13.30;7.32;;;;;;;25.56;48.59;94706.16;4217429;28;19927;-54
2022/07/25 06:21:09;;;;;;;9.05;7.10;;;;;;;25.71;48.14;94706.28;4216026;28;20109;-49
2022/07/25 06:23:11;;;;;;;8.43;7.10;;;;;;;25.75;48.18;94702.03;4206709;28;20059;-50
2022/07/25 06:25:13;;;;;;;8.30;7.40;;;;;;;25.79;48.12;94705.00;4209338;28;20367;-52
2022/07/25 06:27:15;;;;;;;7.90;7.10;;;;;;;25.86;47.84;94709.13;4212344;28;20055;-46
2022/07/25 06:29:22;;;;;;;10.20;6.85;;;;;;;25.96;47.79;94703.06;4223075;28;20123;-49
2022/07/25 06:31:23;;;;;;;11.43;7.55;;;;;;;26.19;47.33;94696.53;4216189;28;20051;-54
2022/07/25 06:33:25;;;;;;;8.68;6.82;;;;;;;26.17;47.26;94698.66;4213449;28;20101;-51
2022/07/25 06:35:27;;;;;;;7.75;6.40;;;;;;;26.30;47.07;94697.41;4220149;28;20101;-51
2022/07/25 06:37:28;;;;;;;9.57;6.65;;;;;;;26.54;46.64;94693.31;4212116;28;20132;-48
2022/07/25 06:39:30;;;;;;;7.22;6.53;;;;;;;26.69;46.03;94697.16;4221090;28;20110;-48
2022/07/25 06:41:32;;;;;;;11.27;6.78;;;;;;;26.58;45.78;94700.88;4213510;28;20052;-46
2022/07/25 06:43:33;;;;;;;7.55;6.72;;;;;;;26.67;46.09;94696.63;4210970;28;20124;-48
2022/07/25 06:45:35;;;;;;;8.00;6.93;;;;;;;26.54;45.96;94696.00;4220461;28;20059;-50
2022/07/25 06:47:38;;;;;;;8.00;7.20;;;;;;;26.58;46.18;94695.50;4210567;28;20097;-49
2022/07/25 06:49:42;;;;;;;9.57;7.28;;;;;;;26.80;45.63;94684.59;4219135;28;20370;-52
2022/07/25 06:51:44;;;;;;;7.85;6.80;;;;;;;26.98;45.59;94696.78;4217109;28;20128;-52
2022/07/25 06:53:45;;;;;;;7.35;6.65;;;;;;;27.13;45.58;94688.78;4224525;28;20466;-52
2022/07/25 06:55:47;;;;;;;8.88;6.90;;;;;;;27.21;45.03;94682.91;4226160;28;20048;-53
2022/07/25 06:57:49;;;;;;;12.10;7.53;;;;;;;27.09;44.89;94687.69;4219823;28;20593;-49
2022/07/25 06:59:51;;;;;;;7.20;6.47;;;;;;;27.26;44.67;94684.84;4216815;28;20057;-47
2022/07/25 07:01:53;;;;;;;10.48;7.53;;;;;;;27.21;44.40;94682.91;4211121;28;20563;-51
2022/07/25 07:03:54;;;;;;;8.68;7.63;;;;;;;27.04;44.84;94682.28;4218438;28;20056;-47
2022/07/25 07:05:56;;;;;;;11.35;8.50;;;;;;;26.77;45.18;94685.94;4220668;28;20047;-55
2022/07/25 07:07:58;;;;;;;9.35;7.88;;;;;;;26.46;45.72;94691.09;4212585;28;20100;-51
2022/07/25 07:10:00;;;;;;;9.03;7.30;;;;;;;26.68;45.52;94679.44;3509293;27;10000574;-49
2022/07/25 07:12:02;;;;;;;10.93;7.85;;;;;;;26.81;45.31;94681.66;4224012;28;20375;-50
2022/07/25 07:14:04;;;;;;;9.05;6.60;;;;;;;26.64;44.88;94676.47;4208761;28;20216;-49
2022/07/25 07:16:06;;;;;;;8.73;7.90;;;;;;;26.49;45.68;94693.25;4219374;28;20059;-47
2022/07/25 07:18:08;;;;;;;10.25;7.55;;;;;;;26.38;45.85;94680.03;4207841;28;20048;-50
2022/07/25 07:20:10;;;;;;;9.00;7.63;;;;;;;26.63;45.55;94682.06;4209018;28;20175;-48
2022/07/25 07:22:12;;;;;;;8.23;7.43;;;;;;;26.95;44.81;94682.81;4206104;27;20056;-49
2022/07/25 07:24:14;;;;;;;9.38;7.45;;;;;;;26.58;44.91;94688.22;4207038;28;20148;-48
2022/07/25 07:26:25;;;;;;;8.75;7.55;;;;;;;26.88;44.40;94681.41;4207535;28;20056;-48
2022/07/25 07:28:26;;;;;;;7.45;6.70;;;;;;;27.09;43.86;94677.75;4207507;28;20151;-50
2022/07/25 07:30:28;;;;;;;11.00;6.72;;;;;;;27.24;43.08;94674.34;4216842;28;20052;-52
2022/07/25 07:32:50;;;;;;;8.25;7.45;;;;;;;27.35;42.45;94675.97;4209235;28;20114;-45
2022/07/25 07:34:52;;;;;;;8.48;7.68;;;;;;;27.42;42.32;94680.31;4207005;28;20139;-51
2022/07/25 07:36:53;;;;;;;8.18;7.25;;;;;;;27.59;41.82;94678.19;4212349;28;20058;-51
2022/07/25 07:38:55;;;;;;;7.70;6.97;;;;;;;27.62;41.86;94674.97;4222660;28;20124;-50
2022/07/25 07:40:57;;;;;;;13.13;8.05;;;;;;;27.63;41.98;94681.97;4213365;28;20786;-52
2022/07/25 07:43:02;;;;;;;9.50;7.18;;;;;;;27.68;41.83;94679.28;4213116;27;20052;-55
2022/07/25 07:45:10;;;;;;;8.27;6.95;;;;;;;27.73;41.37;94679.28;3504710;27;10000093;-57
2022/07/25 07:47:12;;;;;;;8.50;7.63;;;;;;;27.88;41.34;94678.53;4209962;28;20044;-60
2022/07/25 07:49:15;;;;;;;9.07;7.78;;;;;;;27.94;40.57;94673.94;4211327;28;20075;-61
2022/07/25 07:51:17;;;;;;;8.15;6.85;;;;;;;28.02;40.45;94672.63;4214953;28;20096;-60
2022/07/25 07:53:18;;;;;;;8.27;6.97;;;;;;;28.14;40.73;94676.66;3867310;27;10001390;-65
2022/07/25 07:57:40;;;;;;;7.88;7.18;;;;;;;28.27;40.13;94679.88;4213395;28;20147;-59
2022/07/25 07:59:42;;;;;;;10.32;7.05;;;;;;;28.31;39.89;94662.09;4212625;28;20044;-59
2022/07/25 08:01:44;;;;;;;8.32;6.78;;;;;;;28.40;40.05;94676.63;4208667;28;20056;-57
2022/07/25 08:03:45;;;;;;;9.60;8.60;;;;;;;28.03;40.12;94668.81;3855252;27;10000256;-58
2022/07/25 08:05:48;;;;;;;10.35;7.43;;;;;;;28.05;40.07;94662.13;4219699;28;20530;-58
2022/07/25 08:07:51;;;;;;;8.90;7.72;;;;;;;28.10;39.98;94674.78;4217982;28;20128;-59
2022/07/25 08:09:53;;;;;;;8.48;7.57;;;;;;;28.25;39.92;94671.28;4215266;28;20044;-59
2022/07/25 08:11:54;;;;;;;8.95;7.55;;;;;;;28.23;39.94;94663.44;4217890;28;20071;-60
2022/07/25 08:13:56;;;;;;;10.60;7.55;;;;;;;28.14;40.23;94676.66;4211940;28;20044;-60
2022/07/25 08:15:59;;;;;;;8.85;6.97;;;;;;;27.82;40.56;94684.97;4217031;28;20044;-54
2022/07/25 08:18:03;;;;;;;8.68;7.00;;;;;;;27.23;41.26;94677.28;4213199;28;20059;-51
2022/07/25 08:20:18;;;;;;;10.18;7.47;;;;;;;27.34;40.90;94660.94;4212016;28;20123;-51
2022/07/25 08:22:44;;;;;;;10.60;7.70;;;;;;;27.64;41.29;94664.75;4210545;28;20220;-50
2022/07/25 08:24:45;;;;;;;7.97;7.15;;;;;;;27.58;41.93;94668.50;4216810;28;20070;-53
2022/07/25 08:26:47;;;;;;;9.05;7.32;;;;;;;27.70;41.06;94665.56;4212492;28;20055;-52
2022/07/25 08:28:49;;;;;;;10.35;7.50;;;;;;;27.85;40.64;94670.16;4216639;28;20044;-51
2022/07/25 08:31:10;;;;;;;7.90;7.03;;;;;;;28.14;40.65;94668.56;4215551;28;20052;-51
2022/07/25 08:33:14;;;;;;;8.65;7.03;;;;;;;28.20;39.55;94666.69;4215398;28;20558;-50
2022/07/25 08:35:20;;;;;;;7.97;6.72;;;;;;;28.40;39.97;94663.16;4213933;28;20064;-53
2022/07/25 08:37:22;;;;;;;9.02;7.30;;;;;;;28.66;39.39;94661.25;4218999;27;20051;-52
2022/07/25 08:39:24;;;;;;;7.80;6.78;;;;;;;28.95;39.25;94657.91;4215183;28;20048;-54
2022/07/25 08:41:26;;;;;;;10.32;6.90;;;;;;;28.89;38.68;94664.41;4213601;28;20048;-52
2022/07/25 08:43:31;;;;;;;9.50;7.63;;;;;;;28.50;38.90;94663.19;4220486;27;20060;-54
2022/07/25 08:45:33;;;;;;;8.05;7.25;;;;;;;28.35;39.09;94665.84;4211420;28;20434;-53
2022/07/25 08:47:35;;;;;;;10.20;7.22;;;;;;;28.34;38.57;94669.63;4210727;28;20067;-52
2022/07/25 08:49:37;;;;;;;10.03;6.90;;;;;;;28.36;38.35;94675.56;4212874;28;20052;-54
2022/07/25 08:51:39;;;;;;;7.60;6.78;;;;;;;28.49;38.02;94666.94;4219877;28;20361;-52
2022/07/25 08:53:41;;;;;;;9.82;7.03;;;;;;;28.38;38.12;94660.72;4224386;28;20161;-54
2022/07/25 08:55:49;;;;;;;9.30;6.97;;;;;;;28.50;37.93;94654.28;4213740;28;20569;-52
2022/07/25 08:57:52;;;;;;;9.27;7.55;;;;;;;28.73;37.90;94659.06;4219216;28;20530;-54
2022/07/25 08:59:58;;;;;;;7.57;6.88;;;;;;;28.99;37.50;94659.78;4211014;28;20113;-53
2022/07/25 09:02:02;;;;;;;9.55;7.00;;;;;;;29.20;36.72;94654.34;4210735;28;20048;-56
2022/07/25 09:04:07;;;;;;;9.88;7.32;;;;;;;28.43;38.16;94654.53;4214137;28;20443;-54
2022/07/25 09:06:20;;;;;;;10.20;8.30;;;;;;;28.19;38.23;94665.06;4220185;28;20126;-50
2022/07/25 09:08:22;;;;;;;9.45;7.45;;;;;;;28.16;38.00;94652.94;4219813;28;20515;-54
2022/07/25 09:10:26;;;;;;;9.55;6.57;;;;;;;27.99;38.94;94660.50;4212605;28;20047;-56
2022/07/25 09:12:28;;;;;;;8.80;7.15;;;;;;;28.37;38.58;94651.06;4216147;28;20128;-54
2022/07/25 09:14:30;;;;;;;16.83;10.25;;;;;;;28.44;38.05;94648.06;4211196;28;20044;-56
2022/07/25 09:16:34;;;;;;;9.32;7.85;;;;;;;28.69;37.80;94644.53;4212075;28;20056;-57
2022/07/25 09:18:38;;;;;;;7.80;6.90;;;;;;;29.00;37.78;94633.66;4215846;28;20598;-54
2022/07/25 09:20:49;;;;;;;8.07;6.80;;;;;;;29.21;36.99;94642.47;4212516;28;20044;-55
2022/07/25 09:22:51;;;;;;;8.65;7.10;;;;;;;29.39;36.50;94633.72;4222632;28;20060;-53
2022/07/25 09:24:53;;;;;;;9.13;7.10;;;;;;;29.58;36.33;94638.50;4209957;28;20079;-53
2022/07/25 09:27:00;;;;;;;7.50;6.75;;;;;;;29.73;36.58;94627.63;4214390;28;20056;-54
2022/07/25 09:29:01;;;;;;;11.50;7.03;;;;;;;29.75;36.27;94628.13;4215805;28;20046;-53
2022/07/25 09:31:03;;;;;;;11.00;7.88;;;;;;;29.58;36.09;94633.09;4212858;28;20112;-51
2022/07/25 09:33:05;;;;;;;7.95;7.15;;;;;;;28.87;37.17;94629.66;4215977;28;20486;-53
2022/07/25 09:35:07;;;;;;;8.63;7.43;;;;;;;28.90;37.56;94639.06;4217797;28;20052;-51